<?xml version="1.0" encoding="UTF-8" standalone="yes"?>
<gpx xmlns="http://www.topografix.com/GPX/1/1" xmlns:xsi="http://www.w3.org/2001/XMLSchema-instance" version="1.1" creator="MagicMaps Tour Explorer" xsi:schemaLocation="http://www.topografix.com/GPX/1/1 http://www.topografix.com/GPX/1/1/gpx.xsd">
  <trk>
    <name>gr-traithen-ro-s</name>
    <trkseg>
      <trkpt lat="47.659505038" lon="12.053910848">
        <ele>1099.4</ele>
        <time>2026-08-13T06:24:23Z</time>
      </trkpt>
      <trkpt lat="47.659512833" lon="12.053939681">
        <ele>1099.4</ele>
        <time>2026-08-13T06:28:51Z</time>
      </trkpt>
      <trkpt lat="47.659445358" lon="12.053967174">
        <ele>1099.4</ele>
        <time>2026-08-13T06:29:32Z</time>
      </trkpt>
      <trkpt lat="47.659522137" lon="12.053952590">
        <ele>1099.4</ele>
        <time>2026-08-13T06:29:53Z</time>
      </trkpt>
      <trkpt lat="47.659408813" lon="12.054033140">
        <ele>1099.4</ele>
        <time>2026-08-13T06:30:09Z</time>
      </trkpt>
      <trkpt lat="47.659308650" lon="12.053935910">
        <ele>1101.8</ele>
        <time>2026-08-13T06:30:49Z</time>
      </trkpt>
      <trkpt lat="47.659280151" lon="12.053739354">
        <ele>1104.2</ele>
        <time>2026-08-13T06:31:07Z</time>
      </trkpt>
      <trkpt lat="47.659365479" lon="12.053623600">
        <ele>1106.6</ele>
        <time>2026-08-13T06:31:24Z</time>
      </trkpt>
      <trkpt lat="47.659725901" lon="12.053540451">
        <ele>1111.9</ele>
        <time>2026-08-13T06:32:36Z</time>
      </trkpt>
      <trkpt lat="47.659904268" lon="12.053451687">
        <ele>1114.3</ele>
        <time>2026-08-13T06:32:56Z</time>
      </trkpt>
      <trkpt lat="47.659928575" lon="12.053221436">
        <ele>1116.2</ele>
        <time>2026-08-13T06:33:15Z</time>
      </trkpt>
      <trkpt lat="47.659839559" lon="12.053078776">
        <ele>1118.2</ele>
        <time>2026-08-13T06:33:33Z</time>
      </trkpt>
      <trkpt lat="47.659615092" lon="12.052990850">
        <ele>1121.0</ele>
        <time>2026-08-13T06:34:54Z</time>
      </trkpt>
      <trkpt lat="47.659242600" lon="12.052770238">
        <ele>1129.2</ele>
        <time>2026-08-13T06:35:52Z</time>
      </trkpt>
      <trkpt lat="47.659000866" lon="12.052745177">
        <ele>1135.0</ele>
        <time>2026-08-13T06:36:45Z</time>
      </trkpt>
      <trkpt lat="47.658696771" lon="12.052775687">
        <ele>1140.7</ele>
        <time>2026-08-13T06:37:25Z</time>
      </trkpt>
      <trkpt lat="47.658505663" lon="12.052730760">
        <ele>1144.1</ele>
        <time>2026-08-13T06:37:45Z</time>
      </trkpt>
      <trkpt lat="47.658388065" lon="12.052570917">
        <ele>1147.0</ele>
        <time>2026-08-13T06:38:04Z</time>
      </trkpt>
      <trkpt lat="47.658273317" lon="12.052503442">
        <ele>1149.9</ele>
        <time>2026-08-13T06:38:18Z</time>
      </trkpt>
      <trkpt lat="47.658115067" lon="12.052722210">
        <ele>1156.6</ele>
        <time>2026-08-13T06:38:51Z</time>
      </trkpt>
      <trkpt lat="47.658013143" lon="12.052794043">
        <ele>1159.5</ele>
        <time>2026-08-13T06:39:05Z</time>
      </trkpt>
      <trkpt lat="47.657736288" lon="12.053051200">
        <ele>1165.7</ele>
        <time>2026-08-13T06:39:41Z</time>
      </trkpt>
      <trkpt lat="47.657645680" lon="12.053241050">
        <ele>1168.6</ele>
        <time>2026-08-13T06:39:57Z</time>
      </trkpt>
      <trkpt lat="47.657596730" lon="12.053572303">
        <ele>1173.0</ele>
        <time>2026-08-13T06:40:26Z</time>
      </trkpt>
      <trkpt lat="47.657532608" lon="12.053732146">
        <ele>1175.3</ele>
        <time>2026-08-13T06:40:42Z</time>
      </trkpt>
      <trkpt lat="47.657512156" lon="12.053827280">
        <ele>1176.3</ele>
        <time>2026-08-13T06:40:50Z</time>
      </trkpt>
      <trkpt lat="47.657375615" lon="12.054175632">
        <ele>1179.2</ele>
        <time>2026-08-13T06:41:18Z</time>
      </trkpt>
      <trkpt lat="47.657228010" lon="12.054462796">
        <ele>1184.5</ele>
        <time>2026-08-13T06:41:50Z</time>
      </trkpt>
      <trkpt lat="47.657127762" lon="12.054553321">
        <ele>1187.4</ele>
        <time>2026-08-13T06:42:06Z</time>
      </trkpt>
      <trkpt lat="47.656976888" lon="12.054492720">
        <ele>1190.7</ele>
        <time>2026-08-13T06:42:26Z</time>
      </trkpt>
      <trkpt lat="47.656794749" lon="12.054507052">
        <ele>1193.6</ele>
        <time>2026-08-13T06:42:48Z</time>
      </trkpt>
      <trkpt lat="47.656525439" lon="12.054668991">
        <ele>1199.9</ele>
        <time>2026-08-13T06:43:26Z</time>
      </trkpt>
      <trkpt lat="47.656390658" lon="12.054708134">
        <ele>1202.8</ele>
        <time>2026-08-13T06:43:44Z</time>
      </trkpt>
      <trkpt lat="47.656311365" lon="12.054702938">
        <ele>1204.2</ele>
        <time>2026-08-13T06:43:56Z</time>
      </trkpt>
      <trkpt lat="47.656219667" lon="12.054612832">
        <ele>1206.1</ele>
        <time>2026-08-13T06:44:11Z</time>
      </trkpt>
      <trkpt lat="47.656165603" lon="12.054653568">
        <ele>1208.0</ele>
        <time>2026-08-13T06:44:26Z</time>
      </trkpt>
      <trkpt lat="47.656186558" lon="12.054820955">
        <ele>1210.0</ele>
        <time>2026-08-13T06:44:42Z</time>
      </trkpt>
      <trkpt lat="47.656237520" lon="12.055045171">
        <ele>1212.4</ele>
        <time>2026-08-13T06:45:02Z</time>
      </trkpt>
      <trkpt lat="47.656375738" lon="12.055435013">
        <ele>1217.2</ele>
        <time>2026-08-13T06:45:40Z</time>
      </trkpt>
      <trkpt lat="47.656417228" lon="12.055631904">
        <ele>1219.6</ele>
        <time>2026-08-13T06:45:58Z</time>
      </trkpt>
      <trkpt lat="47.656371379" lon="12.055706251">
        <ele>1221.5</ele>
        <time>2026-08-13T06:46:12Z</time>
      </trkpt>
      <trkpt lat="47.656244226" lon="12.055777414">
        <ele>1224.4</ele>
        <time>2026-08-13T06:46:30Z</time>
      </trkpt>
      <trkpt lat="47.656099638" lon="12.055776827">
        <ele>1226.8</ele>
        <time>2026-08-13T06:46:47Z</time>
      </trkpt>
      <trkpt lat="47.655860586" lon="12.055678004">
        <ele>1232.1</ele>
        <time>2026-08-13T06:47:21Z</time>
      </trkpt>
      <trkpt lat="47.655761261" lon="12.055689990">
        <ele>1233.5</ele>
        <time>2026-08-13T06:47:33Z</time>
      </trkpt>
      <trkpt lat="47.655702671" lon="12.055630060">
        <ele>1234.0</ele>
        <time>2026-08-13T06:47:40Z</time>
      </trkpt>
      <trkpt lat="47.655592952" lon="12.055448927">
        <ele>1235.0</ele>
        <time>2026-08-13T06:47:59Z</time>
      </trkpt>
      <trkpt lat="47.655309811" lon="12.055271734">
        <ele>1238.8</ele>
        <time>2026-08-13T06:48:35Z</time>
      </trkpt>
      <trkpt lat="47.655155668" lon="12.055251868">
        <ele>1241.2</ele>
        <time>2026-08-13T06:48:54Z</time>
      </trkpt>
      <trkpt lat="47.655006470" lon="12.055259915">
        <ele>1243.6</ele>
        <time>2026-08-13T06:49:14Z</time>
      </trkpt>
      <trkpt lat="47.654830953" lon="12.055328479">
        <ele>1247.5</ele>
        <time>2026-08-13T06:49:47Z</time>
      </trkpt>
      <trkpt lat="47.654562648" lon="12.055230830">
        <ele>1253.2</ele>
        <time>2026-08-13T06:50:30Z</time>
      </trkpt>
      <trkpt lat="47.654480590" lon="12.055167463">
        <ele>1255.6</ele>
        <time>2026-08-13T06:50:47Z</time>
      </trkpt>
      <trkpt lat="47.654330889" lon="12.054986833">
        <ele>1260.9</ele>
        <time>2026-08-13T06:51:19Z</time>
      </trkpt>
      <trkpt lat="47.654219410" lon="12.054992281">
        <ele>1263.3</ele>
        <time>2026-08-13T06:51:34Z</time>
      </trkpt>
      <trkpt lat="47.654103739" lon="12.055052128">
        <ele>1265.7</ele>
        <time>2026-08-13T06:51:50Z</time>
      </trkpt>
      <trkpt lat="47.654016316" lon="12.055056570">
        <ele>1267.6</ele>
        <time>2026-08-13T06:52:04Z</time>
      </trkpt>
      <trkpt lat="47.653862089" lon="12.055208450">
        <ele>1273.4</ele>
        <time>2026-08-13T06:52:37Z</time>
      </trkpt>
      <trkpt lat="47.653851444" lon="12.055314062">
        <ele>1275.3</ele>
        <time>2026-08-13T06:52:50Z</time>
      </trkpt>
      <trkpt lat="47.653767373" lon="12.055288581">
        <ele>1277.7</ele>
        <time>2026-08-13T06:53:04Z</time>
      </trkpt>
      <trkpt lat="47.653696714" lon="12.055320097">
        <ele>1281.1</ele>
        <time>2026-08-13T06:53:19Z</time>
      </trkpt>
      <trkpt lat="47.653599568" lon="12.055429062">
        <ele>1286.9</ele>
        <time>2026-08-13T06:53:49Z</time>
      </trkpt>
      <trkpt lat="47.653504936" lon="12.055450771">
        <ele>1289.3</ele>
        <time>2026-08-13T06:54:06Z</time>
      </trkpt>
      <trkpt lat="47.653393373" lon="12.055444987">
        <ele>1291.7</ele>
        <time>2026-08-13T06:54:23Z</time>
      </trkpt>
      <trkpt lat="47.653308380" lon="12.055481449">
        <ele>1295.0</ele>
        <time>2026-08-13T06:54:39Z</time>
      </trkpt>
      <trkpt lat="47.653030688" lon="12.055719914">
        <ele>1306.6</ele>
        <time>2026-08-13T06:55:43Z</time>
      </trkpt>
      <trkpt lat="47.652689125" lon="12.055917308">
        <ele>1322.9</ele>
        <time>2026-08-13T06:57:12Z</time>
      </trkpt>
      <trkpt lat="47.652643109" lon="12.055963827">
        <ele>1325.8</ele>
        <time>2026-08-13T06:57:29Z</time>
      </trkpt>
      <trkpt lat="47.652708152" lon="12.056045467">
        <ele>1329.2</ele>
        <time>2026-08-13T06:57:45Z</time>
      </trkpt>
      <trkpt lat="47.652642773" lon="12.056084024">
        <ele>1332.0</ele>
        <time>2026-08-13T06:58:00Z</time>
      </trkpt>
      <trkpt lat="47.652549064" lon="12.056104224">
        <ele>1334.9</ele>
        <time>2026-08-13T06:58:19Z</time>
      </trkpt>
      <trkpt lat="47.652461138" lon="12.056097770">
        <ele>1338.3</ele>
        <time>2026-08-13T06:58:36Z</time>
      </trkpt>
      <trkpt lat="47.652367679" lon="12.056064578">
        <ele>1340.2</ele>
        <time>2026-08-13T06:58:52Z</time>
      </trkpt>
      <trkpt lat="47.652166095" lon="12.055926109">
        <ele>1345.5</ele>
        <time>2026-08-13T06:59:33Z</time>
      </trkpt>
      <trkpt lat="47.652038941" lon="12.055922002">
        <ele>1350.8</ele>
        <time>2026-08-13T07:00:02Z</time>
      </trkpt>
      <trkpt lat="47.651864681" lon="12.055858467">
        <ele>1355.6</ele>
        <time>2026-08-13T07:00:35Z</time>
      </trkpt>
      <trkpt lat="47.651810618" lon="12.055816641">
        <ele>1357.0</ele>
        <time>2026-08-13T07:00:48Z</time>
      </trkpt>
      <trkpt lat="47.651714059" lon="12.055653194">
        <ele>1358.5</ele>
        <time>2026-08-13T07:01:29Z</time>
      </trkpt>
      <trkpt lat="47.651665444" lon="12.055623019">
        <ele>1360.4</ele>
        <time>2026-08-13T07:01:43Z</time>
      </trkpt>
      <trkpt lat="47.651617080" lon="12.055500140">
        <ele>1363.3</ele>
        <time>2026-08-13T07:02:03Z</time>
      </trkpt>
      <trkpt lat="47.651468469" lon="12.055345327">
        <ele>1369.0</ele>
        <time>2026-08-13T07:02:36Z</time>
      </trkpt>
      <trkpt lat="47.651468720" lon="12.055261675">
        <ele>1370.0</ele>
        <time>2026-08-13T07:03:18Z</time>
      </trkpt>
      <trkpt lat="47.651271243" lon="12.055047182">
        <ele>1372.9</ele>
        <time>2026-08-13T07:03:48Z</time>
      </trkpt>
      <trkpt lat="47.651197817" lon="12.054858590">
        <ele>1376.3</ele>
        <time>2026-08-13T07:04:13Z</time>
      </trkpt>
      <trkpt lat="47.651094804" lon="12.054803353">
        <ele>1381.5</ele>
        <time>2026-08-13T07:04:38Z</time>
      </trkpt>
      <trkpt lat="47.651063623" lon="12.054748284">
        <ele>1384.4</ele>
        <time>2026-08-13T07:04:53Z</time>
      </trkpt>
      <trkpt lat="47.651043674" lon="12.054606210">
        <ele>1386.4</ele>
        <time>2026-08-13T07:05:09Z</time>
      </trkpt>
      <trkpt lat="47.650965722" lon="12.054296583">
        <ele>1392.1</ele>
        <time>2026-08-13T07:05:41Z</time>
      </trkpt>
      <trkpt lat="47.650922472" lon="12.054217374">
        <ele>1393.6</ele>
        <time>2026-08-13T07:05:56Z</time>
      </trkpt>
      <trkpt lat="47.650823398" lon="12.053730302">
        <ele>1400.8</ele>
        <time>2026-08-13T07:06:47Z</time>
      </trkpt>
      <trkpt lat="47.650737232" lon="12.053449173">
        <ele>1404.6</ele>
        <time>2026-08-13T07:07:22Z</time>
      </trkpt>
      <trkpt lat="47.650684677" lon="12.053206516">
        <ele>1407.5</ele>
        <time>2026-08-13T07:07:52Z</time>
      </trkpt>
      <trkpt lat="47.650638157" lon="12.053110544">
        <ele>1409.4</ele>
        <time>2026-08-13T07:08:14Z</time>
      </trkpt>
      <trkpt lat="47.650535982" lon="12.053029323">
        <ele>1412.8</ele>
        <time>2026-08-13T07:08:31Z</time>
      </trkpt>
      <trkpt lat="47.650524080" lon="12.053066036">
        <ele>1415.2</ele>
        <time>2026-08-13T07:08:46Z</time>
      </trkpt>
      <trkpt lat="47.650501952" lon="12.053026054">
        <ele>1416.6</ele>
        <time>2026-08-13T07:09:03Z</time>
      </trkpt>
      <trkpt lat="47.650481667" lon="12.052909126">
        <ele>1418.6</ele>
        <time>2026-08-13T07:09:17Z</time>
      </trkpt>
      <trkpt lat="47.650490385" lon="12.052797731">
        <ele>1420.5</ele>
        <time>2026-08-13T07:09:32Z</time>
      </trkpt>
      <trkpt lat="47.650461886" lon="12.052631266">
        <ele>1421.5</ele>
        <time>2026-08-13T07:09:46Z</time>
      </trkpt>
      <trkpt lat="47.650449062" lon="12.052395148">
        <ele>1425.3</ele>
        <time>2026-08-13T07:10:13Z</time>
      </trkpt>
      <trkpt lat="47.650415199" lon="12.052296158">
        <ele>1429.1</ele>
        <time>2026-08-13T07:10:39Z</time>
      </trkpt>
      <trkpt lat="47.650408996" lon="12.052336140">
        <ele>1430.6</ele>
        <time>2026-08-13T07:10:50Z</time>
      </trkpt>
      <trkpt lat="47.650385024" lon="12.052291045">
        <ele>1432.5</ele>
        <time>2026-08-13T07:11:01Z</time>
      </trkpt>
      <trkpt lat="47.650315706" lon="12.052247543">
        <ele>1434.4</ele>
        <time>2026-08-13T07:11:15Z</time>
      </trkpt>
      <trkpt lat="47.650272539" lon="12.052094741">
        <ele>1436.8</ele>
        <time>2026-08-13T07:11:41Z</time>
      </trkpt>
      <trkpt lat="47.650233312" lon="12.052039504">
        <ele>1439.2</ele>
        <time>2026-08-13T07:11:56Z</time>
      </trkpt>
      <trkpt lat="47.650225265" lon="12.051934730">
        <ele>1442.6</ele>
        <time>2026-08-13T07:12:10Z</time>
      </trkpt>
      <trkpt lat="47.650185954" lon="12.051796345">
        <ele>1445.0</ele>
        <time>2026-08-13T07:12:29Z</time>
      </trkpt>
      <trkpt lat="47.650061650" lon="12.051880499">
        <ele>1452.2</ele>
        <time>2026-08-13T07:13:13Z</time>
      </trkpt>
      <trkpt lat="47.650032565" lon="12.051841775">
        <ele>1454.6</ele>
        <time>2026-08-13T07:13:30Z</time>
      </trkpt>
      <trkpt lat="47.649998032" lon="12.051878152">
        <ele>1456.5</ele>
        <time>2026-08-13T07:13:44Z</time>
      </trkpt>
      <trkpt lat="47.649973640" lon="12.051845966">
        <ele>1458.5</ele>
        <time>2026-08-13T07:13:57Z</time>
      </trkpt>
      <trkpt lat="47.649906250" lon="12.051629797">
        <ele>1468.1</ele>
        <time>2026-08-13T07:14:54Z</time>
      </trkpt>
      <trkpt lat="47.649881858" lon="12.051591910">
        <ele>1470.0</ele>
        <time>2026-08-13T07:15:07Z</time>
      </trkpt>
      <trkpt lat="47.649856042" lon="12.051465595">
        <ele>1471.4</ele>
        <time>2026-08-13T07:15:23Z</time>
      </trkpt>
      <trkpt lat="47.649821509" lon="12.051392170">
        <ele>1473.4</ele>
        <time>2026-08-13T07:15:39Z</time>
      </trkpt>
      <trkpt lat="47.649783120" lon="12.051398205">
        <ele>1476.7</ele>
        <time>2026-08-13T07:16:16Z</time>
      </trkpt>
      <trkpt lat="47.649758561" lon="12.051334251">
        <ele>1477.7</ele>
        <time>2026-08-13T07:16:56Z</time>
      </trkpt>
      <trkpt lat="47.649744479" lon="12.051227633">
        <ele>1477.2</ele>
        <time>2026-08-13T07:17:32Z</time>
      </trkpt>
      <trkpt lat="47.649758812" lon="12.050798144">
        <ele>1476.7</ele>
        <time>2026-08-13T07:18:13Z</time>
      </trkpt>
      <trkpt lat="47.649691002" lon="12.050525146">
        <ele>1477.2</ele>
        <time>2026-08-13T07:18:44Z</time>
      </trkpt>
      <trkpt lat="47.649675580" lon="12.050512070">
        <ele>1478.7</ele>
        <time>2026-08-13T07:19:19Z</time>
      </trkpt>
      <trkpt lat="47.649693685" lon="12.050525649">
        <ele>1479.1</ele>
        <time>2026-08-13T07:20:45Z</time>
      </trkpt>
      <trkpt lat="47.649675077" lon="12.050491702">
        <ele>1479.6</ele>
        <time>2026-08-13T07:21:58Z</time>
      </trkpt>
      <trkpt lat="47.649654373" lon="12.050359184">
        <ele>1479.6</ele>
        <time>2026-08-13T07:22:40Z</time>
      </trkpt>
      <trkpt lat="47.649616655" lon="12.050257763">
        <ele>1479.6</ele>
        <time>2026-08-13T07:22:58Z</time>
      </trkpt>
      <trkpt lat="47.649573823" lon="12.049961882">
        <ele>1480.6</ele>
        <time>2026-08-13T07:23:31Z</time>
      </trkpt>
      <trkpt lat="47.649524705" lon="12.049557706">
        <ele>1480.1</ele>
        <time>2026-08-13T07:24:14Z</time>
      </trkpt>
      <trkpt lat="47.649516994" lon="12.049304573">
        <ele>1478.7</ele>
        <time>2026-08-13T07:24:41Z</time>
      </trkpt>
      <trkpt lat="47.649549265" lon="12.049059570">
        <ele>1479.1</ele>
        <time>2026-08-13T07:25:13Z</time>
      </trkpt>
      <trkpt lat="47.649559490" lon="12.048568139">
        <ele>1480.1</ele>
        <time>2026-08-13T07:26:21Z</time>
      </trkpt>
      <trkpt lat="47.649575584" lon="12.048364626">
        <ele>1480.1</ele>
        <time>2026-08-13T07:27:00Z</time>
      </trkpt>
      <trkpt lat="47.649629144" lon="12.048228923">
        <ele>1480.6</ele>
        <time>2026-08-13T07:27:46Z</time>
      </trkpt>
      <trkpt lat="47.649628473" lon="12.048023650">
        <ele>1481.0</ele>
        <time>2026-08-13T07:28:09Z</time>
      </trkpt>
      <trkpt lat="47.649608105" lon="12.047927007">
        <ele>1482.0</ele>
        <time>2026-08-13T07:28:22Z</time>
      </trkpt>
      <trkpt lat="47.649606010" lon="12.047605477">
        <ele>1484.4</ele>
        <time>2026-08-13T07:28:52Z</time>
      </trkpt>
      <trkpt lat="47.649637191" lon="12.047119662">
        <ele>1488.3</ele>
        <time>2026-08-13T07:29:39Z</time>
      </trkpt>
      <trkpt lat="47.649626210" lon="12.046685480">
        <ele>1488.3</ele>
        <time>2026-08-13T07:30:16Z</time>
      </trkpt>
      <trkpt lat="47.649581367" lon="12.046561763">
        <ele>1489.2</ele>
        <time>2026-08-13T07:30:29Z</time>
      </trkpt>
      <trkpt lat="47.649562424" lon="12.046370907">
        <ele>1491.6</ele>
        <time>2026-08-13T07:30:46Z</time>
      </trkpt>
      <trkpt lat="47.649546582" lon="12.046058346">
        <ele>1496.4</ele>
        <time>2026-08-13T07:31:18Z</time>
      </trkpt>
      <trkpt lat="47.649552617" lon="12.045787275">
        <ele>1501.7</ele>
        <time>2026-08-13T07:31:48Z</time>
      </trkpt>
      <trkpt lat="47.649532585" lon="12.045720890">
        <ele>1502.7</ele>
        <time>2026-08-13T07:31:57Z</time>
      </trkpt>
      <trkpt lat="47.649595030" lon="12.045385698">
        <ele>1507.0</ele>
        <time>2026-08-13T07:32:27Z</time>
      </trkpt>
      <trkpt lat="47.649650015" lon="12.045146143">
        <ele>1511.8</ele>
        <time>2026-08-13T07:32:59Z</time>
      </trkpt>
      <trkpt lat="47.649708353" lon="12.044993844">
        <ele>1515.2</ele>
        <time>2026-08-13T07:33:15Z</time>
      </trkpt>
      <trkpt lat="47.649763422" lon="12.044699639">
        <ele>1521.4</ele>
        <time>2026-08-13T07:33:49Z</time>
      </trkpt>
      <trkpt lat="47.649751017" lon="12.044265373">
        <ele>1522.4</ele>
        <time>2026-08-13T07:34:33Z</time>
      </trkpt>
      <trkpt lat="47.649768619" lon="12.044171412">
        <ele>1523.8</ele>
        <time>2026-08-13T07:34:46Z</time>
      </trkpt>
      <trkpt lat="47.649801057" lon="12.044111565">
        <ele>1526.2</ele>
        <time>2026-08-13T07:35:00Z</time>
      </trkpt>
      <trkpt lat="47.649861826" lon="12.044163784">
        <ele>1529.1</ele>
        <time>2026-08-13T07:35:14Z</time>
      </trkpt>
      <trkpt lat="47.649859143" lon="12.044217680">
        <ele>1531.5</ele>
        <time>2026-08-13T07:35:31Z</time>
      </trkpt>
      <trkpt lat="47.649949165" lon="12.044132100">
        <ele>1534.9</ele>
        <time>2026-08-13T07:36:00Z</time>
      </trkpt>
      <trkpt lat="47.650026530" lon="12.044112654">
        <ele>1537.3</ele>
        <time>2026-08-13T07:36:15Z</time>
      </trkpt>
      <trkpt lat="47.650128538" lon="12.044218602">
        <ele>1540.7</ele>
        <time>2026-08-13T07:36:33Z</time>
      </trkpt>
      <trkpt lat="47.650155108" lon="12.044312647">
        <ele>1542.1</ele>
        <time>2026-08-13T07:36:45Z</time>
      </trkpt>
      <trkpt lat="47.650246387" lon="12.044312563">
        <ele>1544.5</ele>
        <time>2026-08-13T07:37:02Z</time>
      </trkpt>
      <trkpt lat="47.650398770" lon="12.044087257">
        <ele>1548.3</ele>
        <time>2026-08-13T07:37:33Z</time>
      </trkpt>
      <trkpt lat="47.650486361" lon="12.044010731">
        <ele>1550.7</ele>
        <time>2026-08-13T07:37:53Z</time>
      </trkpt>
      <trkpt lat="47.650570516" lon="12.044010395">
        <ele>1553.6</ele>
        <time>2026-08-13T07:38:08Z</time>
      </trkpt>
      <trkpt lat="47.650657687" lon="12.043951303">
        <ele>1556.0</ele>
        <time>2026-08-13T07:38:24Z</time>
      </trkpt>
      <trkpt lat="47.650770424" lon="12.043951219">
        <ele>1558.0</ele>
        <time>2026-08-13T07:38:41Z</time>
      </trkpt>
      <trkpt lat="47.650947031" lon="12.043903526">
        <ele>1561.8</ele>
        <time>2026-08-13T07:39:12Z</time>
      </trkpt>
      <trkpt lat="47.650997238" lon="12.043968989">
        <ele>1564.2</ele>
        <time>2026-08-13T07:39:27Z</time>
      </trkpt>
      <trkpt lat="47.651072508" lon="12.044026907">
        <ele>1567.1</ele>
        <time>2026-08-13T07:39:55Z</time>
      </trkpt>
      <trkpt lat="47.651238553" lon="12.044013245">
        <ele>1572.4</ele>
        <time>2026-08-13T07:40:25Z</time>
      </trkpt>
      <trkpt lat="47.651376352" lon="12.043848960">
        <ele>1575.7</ele>
        <time>2026-08-13T07:41:22Z</time>
      </trkpt>
      <trkpt lat="47.651408790" lon="12.043923642">
        <ele>1574.8</ele>
        <time>2026-08-13T07:42:55Z</time>
      </trkpt>
      <trkpt lat="47.651375262" lon="12.043875027">
        <ele>1574.8</ele>
        <time>2026-08-13T07:43:40Z</time>
      </trkpt>
      <trkpt lat="47.651496464" lon="12.043723315">
        <ele>1574.8</ele>
        <time>2026-08-13T07:45:18Z</time>
      </trkpt>
      <trkpt lat="47.651710454" lon="12.043544445">
        <ele>1580.1</ele>
        <time>2026-08-13T07:45:53Z</time>
      </trkpt>
      <trkpt lat="47.651807265" lon="12.043403294">
        <ele>1582.5</ele>
        <time>2026-08-13T07:46:11Z</time>
      </trkpt>
      <trkpt lat="47.651855377" lon="12.043270608">
        <ele>1584.9</ele>
        <time>2026-08-13T07:46:27Z</time>
      </trkpt>
      <trkpt lat="47.651929473" lon="12.043149238">
        <ele>1587.3</ele>
        <time>2026-08-13T07:46:43Z</time>
      </trkpt>
      <trkpt lat="47.652031397" lon="12.043048739">
        <ele>1589.2</ele>
        <time>2026-08-13T07:46:58Z</time>
      </trkpt>
      <trkpt lat="47.652110020" lon="12.042901134">
        <ele>1591.1</ele>
        <time>2026-08-13T07:47:15Z</time>
      </trkpt>
      <trkpt lat="47.652087892" lon="12.042764509">
        <ele>1592.6</ele>
        <time>2026-08-13T07:47:30Z</time>
      </trkpt>
      <trkpt lat="47.652007844" lon="12.042618329">
        <ele>1593.5</ele>
        <time>2026-08-13T07:47:47Z</time>
      </trkpt>
      <trkpt lat="47.651999127" lon="12.042563930">
        <ele>1594.0</ele>
        <time>2026-08-13T07:47:52Z</time>
      </trkpt>
      <trkpt lat="47.652123179" lon="12.042249190">
        <ele>1598.8</ele>
        <time>2026-08-13T07:48:27Z</time>
      </trkpt>
      <trkpt lat="47.652155785" lon="12.042224295">
        <ele>1602.2</ele>
        <time>2026-08-13T07:49:46Z</time>
      </trkpt>
      <trkpt lat="47.652141536" lon="12.042148942">
        <ele>1602.2</ele>
        <time>2026-08-13T07:50:02Z</time>
      </trkpt>
      <trkpt lat="47.651958140" lon="12.041823054">
        <ele>1603.6</ele>
        <time>2026-08-13T07:50:50Z</time>
      </trkpt>
      <trkpt lat="47.651957134" lon="12.041713083">
        <ele>1606.0</ele>
        <time>2026-08-13T07:51:07Z</time>
      </trkpt>
      <trkpt lat="47.652000217" lon="12.041504877">
        <ele>1608.9</ele>
        <time>2026-08-13T07:51:34Z</time>
      </trkpt>
      <trkpt lat="47.652094345" lon="12.041286025">
        <ele>1614.2</ele>
        <time>2026-08-13T07:52:03Z</time>
      </trkpt>
      <trkpt lat="47.652138853" lon="12.041046135">
        <ele>1616.1</ele>
        <time>2026-08-13T07:52:31Z</time>
      </trkpt>
      <trkpt lat="47.652104236" lon="12.040933063">
        <ele>1616.6</ele>
        <time>2026-08-13T07:52:47Z</time>
      </trkpt>
      <trkpt lat="47.652012957" lon="12.040773556">
        <ele>1620.4</ele>
        <time>2026-08-13T07:53:16Z</time>
      </trkpt>
      <trkpt lat="47.652011951" lon="12.040700465">
        <ele>1621.9</ele>
        <time>2026-08-13T07:53:30Z</time>
      </trkpt>
      <trkpt lat="47.651971802" lon="12.040629135">
        <ele>1622.4</ele>
        <time>2026-08-13T07:53:42Z</time>
      </trkpt>
      <trkpt lat="47.651966354" lon="12.040484128">
        <ele>1625.2</ele>
        <time>2026-08-13T07:54:18Z</time>
      </trkpt>
      <trkpt lat="47.651885804" lon="12.040360998">
        <ele>1627.2</ele>
        <time>2026-08-13T07:54:34Z</time>
      </trkpt>
      <trkpt lat="47.651749933" lon="12.040393520">
        <ele>1628.1</ele>
        <time>2026-08-13T07:54:57Z</time>
      </trkpt>
      <trkpt lat="47.651733756" lon="12.040262260">
        <ele>1632.5</ele>
        <time>2026-08-13T07:55:57Z</time>
      </trkpt>
      <trkpt lat="47.651652535" lon="12.040189505">
        <ele>1633.4</ele>
        <time>2026-08-13T07:56:12Z</time>
      </trkpt>
      <trkpt lat="47.651596544" lon="12.040185984">
        <ele>1633.9</ele>
        <time>2026-08-13T07:56:18Z</time>
      </trkpt>
      <trkpt lat="47.651524795" lon="12.040073918">
        <ele>1634.4</ele>
        <time>2026-08-13T07:56:33Z</time>
      </trkpt>
      <trkpt lat="47.651493279" lon="12.039993787">
        <ele>1635.3</ele>
        <time>2026-08-13T07:56:43Z</time>
      </trkpt>
      <trkpt lat="47.651465870" lon="12.039984232">
        <ele>1635.3</ele>
        <time>2026-08-13T07:56:46Z</time>
      </trkpt>
      <trkpt lat="47.651398312" lon="12.039859761">
        <ele>1635.3</ele>
        <time>2026-08-13T07:57:02Z</time>
      </trkpt>
      <trkpt lat="47.651357492" lon="12.039745850">
        <ele>1635.3</ele>
        <time>2026-08-13T07:57:14Z</time>
      </trkpt>
      <trkpt lat="47.651241152" lon="12.039550385">
        <ele>1633.9</ele>
        <time>2026-08-13T07:57:33Z</time>
      </trkpt>
      <trkpt lat="47.651105532" lon="12.039433457">
        <ele>1635.3</ele>
        <time>2026-08-13T07:57:50Z</time>
      </trkpt>
      <trkpt lat="47.650984079" lon="12.039284594">
        <ele>1635.8</ele>
        <time>2026-08-13T07:58:07Z</time>
      </trkpt>
      <trkpt lat="47.650933703" lon="12.039077980">
        <ele>1636.8</ele>
        <time>2026-08-13T07:58:36Z</time>
      </trkpt>
      <trkpt lat="47.650909480" lon="12.039081333">
        <ele>1636.8</ele>
        <time>2026-08-13T07:58:51Z</time>
      </trkpt>
      <trkpt lat="47.650830522" lon="12.039017798">
        <ele>1637.7</ele>
        <time>2026-08-13T07:59:27Z</time>
      </trkpt>
      <trkpt lat="47.650706638" lon="12.038963232">
        <ele>1638.7</ele>
        <time>2026-08-13T07:59:43Z</time>
      </trkpt>
      <trkpt lat="47.650585100" lon="12.038873881">
        <ele>1639.7</ele>
        <time>2026-08-13T08:00:01Z</time>
      </trkpt>
      <trkpt lat="47.650256362" lon="12.038793499">
        <ele>1643.0</ele>
        <time>2026-08-13T08:00:44Z</time>
      </trkpt>
      <trkpt lat="47.649800638" lon="12.038637176">
        <ele>1648.3</ele>
        <time>2026-08-13T08:01:35Z</time>
      </trkpt>
      <trkpt lat="47.649681698" lon="12.038542209">
        <ele>1650.2</ele>
        <time>2026-08-13T08:01:53Z</time>
      </trkpt>
      <trkpt lat="47.649652613" lon="12.038465682">
        <ele>1650.7</ele>
        <time>2026-08-13T08:02:01Z</time>
      </trkpt>
      <trkpt lat="47.649411550" lon="12.038443722">
        <ele>1655.5</ele>
        <time>2026-08-13T08:02:33Z</time>
      </trkpt>
      <trkpt lat="47.649318427" lon="12.038390413">
        <ele>1657.9</ele>
        <time>2026-08-13T08:02:51Z</time>
      </trkpt>
      <trkpt lat="47.649236033" lon="12.038293183">
        <ele>1659.8</ele>
        <time>2026-08-13T08:03:07Z</time>
      </trkpt>
      <trkpt lat="47.649162188" lon="12.038344732">
        <ele>1662.7</ele>
        <time>2026-08-13T08:03:23Z</time>
      </trkpt>
      <trkpt lat="47.649096055" lon="12.038352024">
        <ele>1666.1</ele>
        <time>2026-08-13T08:03:36Z</time>
      </trkpt>
      <trkpt lat="47.648875611" lon="12.038023956">
        <ele>1677.2</ele>
        <time>2026-08-13T08:04:32Z</time>
      </trkpt>
      <trkpt lat="47.648810148" lon="12.037969558">
        <ele>1681.0</ele>
        <time>2026-08-13T08:04:59Z</time>
      </trkpt>
      <trkpt lat="47.648769831" lon="12.037872495">
        <ele>1683.9</ele>
        <time>2026-08-13T08:05:12Z</time>
      </trkpt>
      <trkpt lat="47.648720127" lon="12.037804518">
        <ele>1686.8</ele>
        <time>2026-08-13T08:05:26Z</time>
      </trkpt>
      <trkpt lat="47.648636475" lon="12.037600754">
        <ele>1692.1</ele>
        <time>2026-08-13T08:05:55Z</time>
      </trkpt>
      <trkpt lat="47.648469089" lon="12.037358014">
        <ele>1700.2</ele>
        <time>2026-08-13T08:06:41Z</time>
      </trkpt>
      <trkpt lat="47.648429191" lon="12.037238404">
        <ele>1700.7</ele>
        <time>2026-08-13T08:06:56Z</time>
      </trkpt>
      <trkpt lat="47.648370015" lon="12.037147544">
        <ele>1702.6</ele>
        <time>2026-08-13T08:07:09Z</time>
      </trkpt>
      <trkpt lat="47.648302959" lon="12.037093230">
        <ele>1705.0</ele>
        <time>2026-08-13T08:07:28Z</time>
      </trkpt>
      <trkpt lat="47.648168933" lon="12.036932632">
        <ele>1711.3</ele>
        <time>2026-08-13T08:07:57Z</time>
      </trkpt>
      <trkpt lat="47.648124928" lon="12.036839258">
        <ele>1714.2</ele>
        <time>2026-08-13T08:08:13Z</time>
      </trkpt>
      <trkpt lat="47.647990398" lon="12.036664830">
        <ele>1719.0</ele>
        <time>2026-08-13T08:08:44Z</time>
      </trkpt>
      <trkpt lat="47.647946728" lon="12.036534492">
        <ele>1721.4</ele>
        <time>2026-08-13T08:09:02Z</time>
      </trkpt>
      <trkpt lat="47.647893839" lon="12.036437262">
        <ele>1722.3</ele>
        <time>2026-08-13T08:09:16Z</time>
      </trkpt>
      <trkpt lat="47.647833070" lon="12.036358723">
        <ele>1725.2</ele>
        <time>2026-08-13T08:09:33Z</time>
      </trkpt>
      <trkpt lat="47.647794597" lon="12.036337601">
        <ele>1727.6</ele>
        <time>2026-08-13T08:09:46Z</time>
      </trkpt>
      <trkpt lat="47.647643220" lon="12.036510436">
        <ele>1742.0</ele>
        <time>2026-08-13T08:10:55Z</time>
      </trkpt>
      <trkpt lat="47.647587145" lon="12.036608420">
        <ele>1747.8</ele>
        <time>2026-08-13T08:11:25Z</time>
      </trkpt>
      <trkpt lat="47.647550516" lon="12.036625184">
        <ele>1749.7</ele>
        <time>2026-08-13T08:11:39Z</time>
      </trkpt>
      <trkpt lat="47.647528723" lon="12.036681594">
        <ele>1752.6</ele>
        <time>2026-08-13T08:11:53Z</time>
      </trkpt>
      <trkpt lat="47.647489831" lon="12.036711769">
        <ele>1756.0</ele>
        <time>2026-08-13T08:12:07Z</time>
      </trkpt>
      <trkpt lat="47.647414729" lon="12.036703471">
        <ele>1760.3</ele>
        <time>2026-08-13T08:12:32Z</time>
      </trkpt>
      <trkpt lat="47.647388075" lon="12.036711350">
        <ele>1764.2</ele>
        <time>2026-08-13T08:13:17Z</time>
      </trkpt>
      <trkpt lat="47.647341974" lon="12.036919389">
        <ele>1770.9</ele>
        <time>2026-08-13T08:13:59Z</time>
      </trkpt>
      <trkpt lat="47.647344153" lon="12.036994239">
        <ele>1773.3</ele>
        <time>2026-08-13T08:14:13Z</time>
      </trkpt>
      <trkpt lat="47.647308614" lon="12.037038747">
        <ele>1775.7</ele>
        <time>2026-08-13T08:14:25Z</time>
      </trkpt>
      <trkpt lat="47.647242900" lon="12.037243936">
        <ele>1783.9</ele>
        <time>2026-08-13T08:15:08Z</time>
      </trkpt>
      <trkpt lat="47.647214569" lon="12.037280984">
        <ele>1786.8</ele>
        <time>2026-08-13T08:15:21Z</time>
      </trkpt>
      <trkpt lat="47.647120105" lon="12.037238069">
        <ele>1792.0</ele>
        <time>2026-08-13T08:15:53Z</time>
      </trkpt>
      <trkpt lat="47.647062102" lon="12.037340999">
        <ele>1797.3</ele>
        <time>2026-08-13T08:16:20Z</time>
      </trkpt>
      <trkpt lat="47.647053804" lon="12.037414759">
        <ele>1799.7</ele>
        <time>2026-08-13T08:16:36Z</time>
      </trkpt>
      <trkpt lat="47.646997226" lon="12.037467482">
        <ele>1805.0</ele>
        <time>2026-08-13T08:17:03Z</time>
      </trkpt>
      <trkpt lat="47.646983396" lon="12.037527580">
        <ele>1807.4</ele>
        <time>2026-08-13T08:17:16Z</time>
      </trkpt>
      <trkpt lat="47.646938050" lon="12.037612489">
        <ele>1812.2</ele>
        <time>2026-08-13T08:17:45Z</time>
      </trkpt>
      <trkpt lat="47.646897566" lon="12.037588432">
        <ele>1814.6</ele>
        <time>2026-08-13T08:17:58Z</time>
      </trkpt>
      <trkpt lat="47.646887507" lon="12.037661103">
        <ele>1816.1</ele>
        <time>2026-08-13T08:18:10Z</time>
      </trkpt>
      <trkpt lat="47.646870157" lon="12.037676191">
        <ele>1818.0</ele>
        <time>2026-08-13T08:18:22Z</time>
      </trkpt>
      <trkpt lat="47.646859344" lon="12.037635622">
        <ele>1819.0</ele>
        <time>2026-08-13T08:18:53Z</time>
      </trkpt>
      <trkpt lat="47.646795306" lon="12.037598994">
        <ele>1821.8</ele>
        <time>2026-08-13T08:19:19Z</time>
      </trkpt>
      <trkpt lat="47.646766976" lon="12.037630677">
        <ele>1823.8</ele>
        <time>2026-08-13T08:19:34Z</time>
      </trkpt>
      <trkpt lat="47.646693047" lon="12.037636042">
        <ele>1828.1</ele>
        <time>2026-08-13T08:19:57Z</time>
      </trkpt>
      <trkpt lat="47.646633116" lon="12.037703684">
        <ele>1832.9</ele>
        <time>2026-08-13T08:20:26Z</time>
      </trkpt>
      <trkpt lat="47.646548878" lon="12.037640065">
        <ele>1835.8</ele>
        <time>2026-08-13T08:20:51Z</time>
      </trkpt>
      <trkpt lat="47.646543849" lon="12.037662696">
        <ele>1837.2</ele>
        <time>2026-08-13T08:21:04Z</time>
      </trkpt>
      <trkpt lat="47.646564720" lon="12.037700750">
        <ele>1837.2</ele>
        <time>2026-08-13T08:21:21Z</time>
      </trkpt>
      <trkpt lat="47.646535803" lon="12.037608214">
        <ele>1837.2</ele>
        <time>2026-08-13T08:21:36Z</time>
      </trkpt>
      <trkpt lat="47.646545945" lon="12.037601592">
        <ele>1837.2</ele>
        <time>2026-08-13T08:22:00Z</time>
      </trkpt>
      <trkpt lat="47.646561116" lon="12.037684992">
        <ele>1837.2</ele>
        <time>2026-08-13T08:22:25Z</time>
      </trkpt>
      <trkpt lat="47.646569163" lon="12.037677783">
        <ele>1834.3</ele>
        <time>2026-08-13T08:22:31Z</time>
      </trkpt>
      <trkpt lat="47.646565139" lon="12.037692368">
        <ele>1833.8</ele>
        <time>2026-08-13T08:26:48Z</time>
      </trkpt>
      <trkpt lat="47.646540497" lon="12.037684657">
        <ele>1826.6</ele>
        <time>2026-08-13T08:46:23Z</time>
      </trkpt>
      <trkpt lat="47.646567486" lon="12.037701672">
        <ele>1830.5</ele>
        <time>2026-08-13T08:49:56Z</time>
      </trkpt>
      <trkpt lat="47.646466903" lon="12.037830921">
        <ele>1825.2</ele>
        <time>2026-08-13T08:50:46Z</time>
      </trkpt>
      <trkpt lat="47.646447290" lon="12.037912980">
        <ele>1822.8</ele>
        <time>2026-08-13T08:50:58Z</time>
      </trkpt>
      <trkpt lat="47.646387862" lon="12.038013060">
        <ele>1820.4</ele>
        <time>2026-08-13T08:51:13Z</time>
      </trkpt>
      <trkpt lat="47.646349305" lon="12.038135016">
        <ele>1815.6</ele>
        <time>2026-08-13T08:51:42Z</time>
      </trkpt>
      <trkpt lat="47.646265151" lon="12.038271474">
        <ele>1812.7</ele>
        <time>2026-08-13T08:52:09Z</time>
      </trkpt>
      <trkpt lat="47.646240592" lon="12.038475070">
        <ele>1808.9</ele>
        <time>2026-08-13T08:52:36Z</time>
      </trkpt>
      <trkpt lat="47.646109248" lon="12.038846808">
        <ele>1804.5</ele>
        <time>2026-08-13T08:53:19Z</time>
      </trkpt>
      <trkpt lat="47.646045126" lon="12.038923670">
        <ele>1804.5</ele>
        <time>2026-08-13T08:53:33Z</time>
      </trkpt>
      <trkpt lat="47.645993661" lon="12.039052751">
        <ele>1801.2</ele>
        <time>2026-08-13T08:53:48Z</time>
      </trkpt>
      <trkpt lat="47.645860305" lon="12.039207481">
        <ele>1796.8</ele>
        <time>2026-08-13T08:54:12Z</time>
      </trkpt>
      <trkpt lat="47.645753436" lon="12.039375957">
        <ele>1794.0</ele>
        <time>2026-08-13T08:54:39Z</time>
      </trkpt>
      <trkpt lat="47.645727200" lon="12.039490202">
        <ele>1792.5</ele>
        <time>2026-08-13T08:54:52Z</time>
      </trkpt>
      <trkpt lat="47.645699624" lon="12.039490873">
        <ele>1792.0</ele>
        <time>2026-08-13T08:54:56Z</time>
      </trkpt>
      <trkpt lat="47.645569704" lon="12.039685752">
        <ele>1789.6</ele>
        <time>2026-08-13T08:55:19Z</time>
      </trkpt>
      <trkpt lat="47.645510864" lon="12.039874597">
        <ele>1787.7</ele>
        <time>2026-08-13T08:55:36Z</time>
      </trkpt>
      <trkpt lat="47.645456716" lon="12.039977778">
        <ele>1787.2</ele>
        <time>2026-08-13T08:55:52Z</time>
      </trkpt>
      <trkpt lat="47.645409694" lon="12.040008372">
        <ele>1788.7</ele>
        <time>2026-08-13T08:56:01Z</time>
      </trkpt>
      <trkpt lat="47.645363007" lon="12.040288998">
        <ele>1791.5</ele>
        <time>2026-08-13T08:56:26Z</time>
      </trkpt>
      <trkpt lat="47.645221353" lon="12.040572222">
        <ele>1791.5</ele>
        <time>2026-08-13T08:56:56Z</time>
      </trkpt>
      <trkpt lat="47.645135019" lon="12.040955443">
        <ele>1794.4</ele>
        <time>2026-08-13T08:57:31Z</time>
      </trkpt>
      <trkpt lat="47.645078609" lon="12.041062396">
        <ele>1795.9</ele>
        <time>2026-08-13T08:57:45Z</time>
      </trkpt>
      <trkpt lat="47.644915916" lon="12.041508397">
        <ele>1800.7</ele>
        <time>2026-08-13T08:58:37Z</time>
      </trkpt>
      <trkpt lat="47.644897224" lon="12.041677628">
        <ele>1802.1</ele>
        <time>2026-08-13T08:58:53Z</time>
      </trkpt>
      <trkpt lat="47.644842072" lon="12.041827329">
        <ele>1803.6</ele>
        <time>2026-08-13T08:59:08Z</time>
      </trkpt>
      <trkpt lat="47.644735621" lon="12.042034697">
        <ele>1805.5</ele>
        <time>2026-08-13T08:59:42Z</time>
      </trkpt>
      <trkpt lat="47.644636547" lon="12.042365950">
        <ele>1805.0</ele>
        <time>2026-08-13T09:00:20Z</time>
      </trkpt>
      <trkpt lat="47.644576617" lon="12.042664345">
        <ele>1804.0</ele>
        <time>2026-08-13T09:00:50Z</time>
      </trkpt>
      <trkpt lat="47.644544095" lon="12.042753026">
        <ele>1803.6</ele>
        <time>2026-08-13T09:01:04Z</time>
      </trkpt>
      <trkpt lat="47.644529343" lon="12.042878084">
        <ele>1803.6</ele>
        <time>2026-08-13T09:01:17Z</time>
      </trkpt>
      <trkpt lat="47.644433789" lon="12.042984366">
        <ele>1801.2</ele>
        <time>2026-08-13T09:01:37Z</time>
      </trkpt>
      <trkpt lat="47.644376205" lon="12.043151166">
        <ele>1800.7</ele>
        <time>2026-08-13T09:01:54Z</time>
      </trkpt>
      <trkpt lat="47.644248884" lon="12.043380076">
        <ele>1803.6</ele>
        <time>2026-08-13T09:02:24Z</time>
      </trkpt>
      <trkpt lat="47.644215860" lon="12.043413185">
        <ele>1803.6</ele>
        <time>2026-08-13T09:02:29Z</time>
      </trkpt>
      <trkpt lat="47.644209405" lon="12.043532124">
        <ele>1804.0</ele>
        <time>2026-08-13T09:02:42Z</time>
      </trkpt>
      <trkpt lat="47.644061465" lon="12.043802524">
        <ele>1804.0</ele>
        <time>2026-08-13T09:03:08Z</time>
      </trkpt>
      <trkpt lat="47.644049898" lon="12.044016346">
        <ele>1803.1</ele>
        <time>2026-08-13T09:03:25Z</time>
      </trkpt>
      <trkpt lat="47.644013772" lon="12.044168729">
        <ele>1801.7</ele>
        <time>2026-08-13T09:03:37Z</time>
      </trkpt>
      <trkpt lat="47.644069260" lon="12.044527642">
        <ele>1801.2</ele>
        <time>2026-08-13T09:04:11Z</time>
      </trkpt>
      <trkpt lat="47.644025339" lon="12.044776669">
        <ele>1801.2</ele>
        <time>2026-08-13T09:04:34Z</time>
      </trkpt>
      <trkpt lat="47.644041516" lon="12.045100965">
        <ele>1794.4</ele>
        <time>2026-08-13T09:05:21Z</time>
      </trkpt>
      <trkpt lat="47.644115528" lon="12.045378406">
        <ele>1788.2</ele>
        <time>2026-08-13T09:05:50Z</time>
      </trkpt>
      <trkpt lat="47.644100860" lon="12.045462560">
        <ele>1785.3</ele>
        <time>2026-08-13T09:06:05Z</time>
      </trkpt>
      <trkpt lat="47.644161461" lon="12.045650985">
        <ele>1780.0</ele>
        <time>2026-08-13T09:06:29Z</time>
      </trkpt>
      <trkpt lat="47.644136483" lon="12.045763554">
        <ele>1777.1</ele>
        <time>2026-08-13T09:06:42Z</time>
      </trkpt>
      <trkpt lat="47.644200437" lon="12.046025740">
        <ele>1772.3</ele>
        <time>2026-08-13T09:07:11Z</time>
      </trkpt>
      <trkpt lat="47.644230025" lon="12.046164209">
        <ele>1769.4</ele>
        <time>2026-08-13T09:07:22Z</time>
      </trkpt>
      <trkpt lat="47.644219883" lon="12.046260768">
        <ele>1767.0</ele>
        <time>2026-08-13T09:07:32Z</time>
      </trkpt>
      <trkpt lat="47.644249806" lon="12.046442823">
        <ele>1763.2</ele>
        <time>2026-08-13T09:08:10Z</time>
      </trkpt>
      <trkpt lat="47.644255087" lon="12.046664860">
        <ele>1758.4</ele>
        <time>2026-08-13T09:08:36Z</time>
      </trkpt>
      <trkpt lat="47.644343181" lon="12.046984546">
        <ele>1755.0</ele>
        <time>2026-08-13T09:09:08Z</time>
      </trkpt>
      <trkpt lat="47.644292889" lon="12.047228711">
        <ele>1745.9</ele>
        <time>2026-08-13T09:10:05Z</time>
      </trkpt>
      <trkpt lat="47.644302696" lon="12.047415124">
        <ele>1742.0</ele>
        <time>2026-08-13T09:10:27Z</time>
      </trkpt>
      <trkpt lat="47.644369584" lon="12.047548816">
        <ele>1740.6</ele>
        <time>2026-08-13T09:10:43Z</time>
      </trkpt>
      <trkpt lat="47.644343767" lon="12.047671359">
        <ele>1737.7</ele>
        <time>2026-08-13T09:10:57Z</time>
      </trkpt>
      <trkpt lat="47.644341588" lon="12.047829693">
        <ele>1734.8</ele>
        <time>2026-08-13T09:11:12Z</time>
      </trkpt>
      <trkpt lat="47.644409649" lon="12.047904376">
        <ele>1732.4</ele>
        <time>2026-08-13T09:11:28Z</time>
      </trkpt>
      <trkpt lat="47.644412918" lon="12.048000935">
        <ele>1730.5</ele>
        <time>2026-08-13T09:11:42Z</time>
      </trkpt>
      <trkpt lat="47.644388946" lon="12.048131861">
        <ele>1727.2</ele>
        <time>2026-08-13T09:12:00Z</time>
      </trkpt>
      <trkpt lat="47.644461449" lon="12.048412403">
        <ele>1721.9</ele>
        <time>2026-08-13T09:12:29Z</time>
      </trkpt>
      <trkpt lat="47.644434962" lon="12.048509717">
        <ele>1719.5</ele>
        <time>2026-08-13T09:12:46Z</time>
      </trkpt>
      <trkpt lat="47.644436639" lon="12.048618933">
        <ele>1717.5</ele>
        <time>2026-08-13T09:13:02Z</time>
      </trkpt>
      <trkpt lat="47.644533198" lon="12.048807778">
        <ele>1713.2</ele>
        <time>2026-08-13T09:13:43Z</time>
      </trkpt>
      <trkpt lat="47.644570246" lon="12.048983546">
        <ele>1710.8</ele>
        <time>2026-08-13T09:14:11Z</time>
      </trkpt>
      <trkpt lat="47.644534456" lon="12.049110699">
        <ele>1706.5</ele>
        <time>2026-08-13T09:14:37Z</time>
      </trkpt>
      <trkpt lat="47.644563960" lon="12.049151855">
        <ele>1705.0</ele>
        <time>2026-08-13T09:14:55Z</time>
      </trkpt>
      <trkpt lat="47.644538311" lon="12.049291162">
        <ele>1702.2</ele>
        <time>2026-08-13T09:15:19Z</time>
      </trkpt>
      <trkpt lat="47.644619867" lon="12.049600789">
        <ele>1698.8</ele>
        <time>2026-08-13T09:15:51Z</time>
      </trkpt>
      <trkpt lat="47.644622130" lon="12.049746215">
        <ele>1698.3</ele>
        <time>2026-08-13T09:16:07Z</time>
      </trkpt>
      <trkpt lat="47.644664627" lon="12.049836069">
        <ele>1699.8</ele>
        <time>2026-08-13T09:16:22Z</time>
      </trkpt>
      <trkpt lat="47.644677367" lon="12.050193641">
        <ele>1696.9</ele>
        <time>2026-08-13T09:17:10Z</time>
      </trkpt>
      <trkpt lat="47.644778201" lon="12.050326075">
        <ele>1696.4</ele>
        <time>2026-08-13T09:17:29Z</time>
      </trkpt>
      <trkpt lat="47.644823631" lon="12.050469071">
        <ele>1699.3</ele>
        <time>2026-08-13T09:17:57Z</time>
      </trkpt>
      <trkpt lat="47.644829163" lon="12.050679205">
        <ele>1697.8</ele>
        <time>2026-08-13T09:18:16Z</time>
      </trkpt>
      <trkpt lat="47.644868894" lon="12.050787248">
        <ele>1697.8</ele>
        <time>2026-08-13T09:18:30Z</time>
      </trkpt>
      <trkpt lat="47.644852716" lon="12.050899649">
        <ele>1698.8</ele>
        <time>2026-08-13T09:18:44Z</time>
      </trkpt>
      <trkpt lat="47.644890351" lon="12.050955724">
        <ele>1697.8</ele>
        <time>2026-08-13T09:18:58Z</time>
      </trkpt>
      <trkpt lat="47.644934105" lon="12.051263927">
        <ele>1697.8</ele>
        <time>2026-08-13T09:19:42Z</time>
      </trkpt>
      <trkpt lat="47.645064527" lon="12.051450172">
        <ele>1699.3</ele>
        <time>2026-08-13T09:20:28Z</time>
      </trkpt>
      <trkpt lat="47.645109454" lon="12.051562239">
        <ele>1700.2</ele>
        <time>2026-08-13T09:20:45Z</time>
      </trkpt>
      <trkpt lat="47.645124709" lon="12.051789137">
        <ele>1703.1</ele>
        <time>2026-08-13T09:21:15Z</time>
      </trkpt>
      <trkpt lat="47.645113561" lon="12.051867256">
        <ele>1702.2</ele>
        <time>2026-08-13T09:21:27Z</time>
      </trkpt>
      <trkpt lat="47.645182712" lon="12.052130364">
        <ele>1700.2</ele>
        <time>2026-08-13T09:21:57Z</time>
      </trkpt>
      <trkpt lat="47.645189669" lon="12.052260954">
        <ele>1701.7</ele>
        <time>2026-08-13T09:22:13Z</time>
      </trkpt>
      <trkpt lat="47.645174162" lon="12.052374277">
        <ele>1705.0</ele>
        <time>2026-08-13T09:22:31Z</time>
      </trkpt>
      <trkpt lat="47.645253204" lon="12.052548537">
        <ele>1711.8</ele>
        <time>2026-08-13T09:23:24Z</time>
      </trkpt>
      <trkpt lat="47.645219760" lon="12.052685916">
        <ele>1712.7</ele>
        <time>2026-08-13T09:23:38Z</time>
      </trkpt>
      <trkpt lat="47.645296119" lon="12.052924465">
        <ele>1716.6</ele>
        <time>2026-08-13T09:24:18Z</time>
      </trkpt>
      <trkpt lat="47.645332497" lon="12.053284552">
        <ele>1717.5</ele>
        <time>2026-08-13T09:24:53Z</time>
      </trkpt>
      <trkpt lat="47.645356636" lon="12.053385219">
        <ele>1717.0</ele>
        <time>2026-08-13T09:25:08Z</time>
      </trkpt>
      <trkpt lat="47.645396199" lon="12.053460153">
        <ele>1717.0</ele>
        <time>2026-08-13T09:25:23Z</time>
      </trkpt>
      <trkpt lat="47.645509606" lon="12.053796435">
        <ele>1721.4</ele>
        <time>2026-08-13T09:26:15Z</time>
      </trkpt>
      <trkpt lat="47.645545900" lon="12.053995170">
        <ele>1723.8</ele>
        <time>2026-08-13T09:26:42Z</time>
      </trkpt>
      <trkpt lat="47.645533159" lon="12.054081755">
        <ele>1723.8</ele>
        <time>2026-08-13T09:26:56Z</time>
      </trkpt>
      <trkpt lat="47.645593928" lon="12.054225924">
        <ele>1723.3</ele>
        <time>2026-08-13T09:27:29Z</time>
      </trkpt>
      <trkpt lat="47.645603064" lon="12.054428849">
        <ele>1723.8</ele>
        <time>2026-08-13T09:27:58Z</time>
      </trkpt>
      <trkpt lat="47.645632485" lon="12.054568743">
        <ele>1722.8</ele>
        <time>2026-08-13T09:28:12Z</time>
      </trkpt>
      <trkpt lat="47.645667438" lon="12.054690784">
        <ele>1722.3</ele>
        <time>2026-08-13T09:28:26Z</time>
      </trkpt>
      <trkpt lat="47.645722590" lon="12.054689275">
        <ele>1722.8</ele>
        <time>2026-08-13T09:28:44Z</time>
      </trkpt>
      <trkpt lat="47.645764584" lon="12.054754654">
        <ele>1721.9</ele>
        <time>2026-08-13T09:29:23Z</time>
      </trkpt>
      <trkpt lat="47.645772211" lon="12.054861020">
        <ele>1720.9</ele>
        <time>2026-08-13T09:29:40Z</time>
      </trkpt>
      <trkpt lat="47.645789059" lon="12.054885160">
        <ele>1719.5</ele>
        <time>2026-08-13T09:30:24Z</time>
      </trkpt>
      <trkpt lat="47.645852929" lon="12.054799832">
        <ele>1715.1</ele>
        <time>2026-08-13T09:31:19Z</time>
      </trkpt>
      <trkpt lat="47.645864915" lon="12.054757169">
        <ele>1714.7</ele>
        <time>2026-08-13T09:31:33Z</time>
      </trkpt>
      <trkpt lat="47.645890396" lon="12.054760605">
        <ele>1713.2</ele>
        <time>2026-08-13T09:31:51Z</time>
      </trkpt>
      <trkpt lat="47.645890899" lon="12.054716768">
        <ele>1710.8</ele>
        <time>2026-08-13T09:32:25Z</time>
      </trkpt>
      <trkpt lat="47.645951584" lon="12.054739064">
        <ele>1707.4</ele>
        <time>2026-08-13T09:32:56Z</time>
      </trkpt>
      <trkpt lat="47.645974970" lon="12.054672092">
        <ele>1704.1</ele>
        <time>2026-08-13T09:33:31Z</time>
      </trkpt>
      <trkpt lat="47.646018555" lon="12.054739231">
        <ele>1701.7</ele>
        <time>2026-08-13T09:34:06Z</time>
      </trkpt>
      <trkpt lat="47.646062980" lon="12.054722887">
        <ele>1697.8</ele>
        <time>2026-08-13T09:34:38Z</time>
      </trkpt>
      <trkpt lat="47.646098686" lon="12.054762282">
        <ele>1694.9</ele>
        <time>2026-08-13T09:34:54Z</time>
      </trkpt>
      <trkpt lat="47.646113941" lon="12.054806622">
        <ele>1692.1</ele>
        <time>2026-08-13T09:35:32Z</time>
      </trkpt>
      <trkpt lat="47.646112516" lon="12.054881305">
        <ele>1689.7</ele>
        <time>2026-08-13T09:36:22Z</time>
      </trkpt>
      <trkpt lat="47.646174626" lon="12.054791450">
        <ele>1684.4</ele>
        <time>2026-08-13T09:36:50Z</time>
      </trkpt>
      <trkpt lat="47.646243442" lon="12.054778878">
        <ele>1681.0</ele>
        <time>2026-08-13T09:37:22Z</time>
      </trkpt>
      <trkpt lat="47.646290800" lon="12.054747278">
        <ele>1678.1</ele>
        <time>2026-08-13T09:37:37Z</time>
      </trkpt>
      <trkpt lat="47.646298595" lon="12.054714253">
        <ele>1677.2</ele>
        <time>2026-08-13T09:37:51Z</time>
      </trkpt>
      <trkpt lat="47.646362297" lon="12.054691790">
        <ele>1674.3</ele>
        <time>2026-08-13T09:38:38Z</time>
      </trkpt>
      <trkpt lat="47.646409571" lon="12.054565558">
        <ele>1669.0</ele>
        <time>2026-08-13T09:39:20Z</time>
      </trkpt>
      <trkpt lat="47.646436477" lon="12.054563547">
        <ele>1666.6</ele>
        <time>2026-08-13T09:39:40Z</time>
      </trkpt>
      <trkpt lat="47.646445027" lon="12.054529265">
        <ele>1664.7</ele>
        <time>2026-08-13T09:39:57Z</time>
      </trkpt>
      <trkpt lat="47.646528008" lon="12.054491546">
        <ele>1658.9</ele>
        <time>2026-08-13T09:40:45Z</time>
      </trkpt>
      <trkpt lat="47.646664465" lon="12.054551309">
        <ele>1651.2</ele>
        <time>2026-08-13T09:41:30Z</time>
      </trkpt>
      <trkpt lat="47.646695897" lon="12.054614173">
        <ele>1649.8</ele>
        <time>2026-08-13T09:41:44Z</time>
      </trkpt>
      <trkpt lat="47.646828918" lon="12.054512417">
        <ele>1639.2</ele>
        <time>2026-08-13T09:42:42Z</time>
      </trkpt>
      <trkpt lat="47.646931764" lon="12.054604534">
        <ele>1633.9</ele>
        <time>2026-08-13T09:43:30Z</time>
      </trkpt>
      <trkpt lat="47.647016840" lon="12.054585759">
        <ele>1628.6</ele>
        <time>2026-08-13T09:44:03Z</time>
      </trkpt>
      <trkpt lat="47.647116501" lon="12.054594224">
        <ele>1621.4</ele>
        <time>2026-08-13T09:44:57Z</time>
      </trkpt>
      <trkpt lat="47.647116752" lon="12.054506298">
        <ele>1619.0</ele>
        <time>2026-08-13T09:45:12Z</time>
      </trkpt>
      <trkpt lat="47.647132091" lon="12.054476794">
        <ele>1619.0</ele>
        <time>2026-08-13T09:45:16Z</time>
      </trkpt>
      <trkpt lat="47.647261424" lon="12.054337403">
        <ele>1611.3</ele>
        <time>2026-08-13T09:45:56Z</time>
      </trkpt>
      <trkpt lat="47.647317415" lon="12.054341594">
        <ele>1608.4</ele>
        <time>2026-08-13T09:46:12Z</time>
      </trkpt>
      <trkpt lat="47.647360079" lon="12.054319633">
        <ele>1606.5</ele>
        <time>2026-08-13T09:46:31Z</time>
      </trkpt>
      <trkpt lat="47.647425709" lon="12.054338828">
        <ele>1603.1</ele>
        <time>2026-08-13T09:46:45Z</time>
      </trkpt>
      <trkpt lat="47.647447502" lon="12.054307479">
        <ele>1602.2</ele>
        <time>2026-08-13T09:46:50Z</time>
      </trkpt>
      <trkpt lat="47.647431996" lon="12.054130286">
        <ele>1598.8</ele>
        <time>2026-08-13T09:47:10Z</time>
      </trkpt>
      <trkpt lat="47.647445239" lon="12.054030960">
        <ele>1595.9</ele>
        <time>2026-08-13T09:47:26Z</time>
      </trkpt>
      <trkpt lat="47.647490669" lon="12.053997768">
        <ele>1594.0</ele>
        <time>2026-08-13T09:47:37Z</time>
      </trkpt>
      <trkpt lat="47.647606842" lon="12.054024506">
        <ele>1587.3</ele>
        <time>2026-08-13T09:48:14Z</time>
      </trkpt>
      <trkpt lat="47.647633580" lon="12.053992320">
        <ele>1584.4</ele>
        <time>2026-08-13T09:48:29Z</time>
      </trkpt>
      <trkpt lat="47.647648333" lon="12.053909088">
        <ele>1582.5</ele>
        <time>2026-08-13T09:48:45Z</time>
      </trkpt>
      <trkpt lat="47.647679430" lon="12.053856952">
        <ele>1581.0</ele>
        <time>2026-08-13T09:48:59Z</time>
      </trkpt>
      <trkpt lat="47.647788897" lon="12.053896096">
        <ele>1575.3</ele>
        <time>2026-08-13T09:49:27Z</time>
      </trkpt>
      <trkpt lat="47.647853270" lon="12.053871117">
        <ele>1572.4</ele>
        <time>2026-08-13T09:49:42Z</time>
      </trkpt>
      <trkpt lat="47.647925271" lon="12.053881260">
        <ele>1569.5</ele>
        <time>2026-08-13T09:49:56Z</time>
      </trkpt>
      <trkpt lat="47.648103470" lon="12.053788975">
        <ele>1560.4</ele>
        <time>2026-08-13T09:50:37Z</time>
      </trkpt>
      <trkpt lat="47.648199946" lon="12.053842787">
        <ele>1556.0</ele>
        <time>2026-08-13T09:51:07Z</time>
      </trkpt>
      <trkpt lat="47.648220062" lon="12.053828789">
        <ele>1556.0</ele>
        <time>2026-08-13T09:51:27Z</time>
      </trkpt>
      <trkpt lat="47.648307066" lon="12.053847229">
        <ele>1554.1</ele>
        <time>2026-08-13T09:51:38Z</time>
      </trkpt>
      <trkpt lat="47.648504376" lon="12.053833231">
        <ele>1551.2</ele>
        <time>2026-08-13T09:52:00Z</time>
      </trkpt>
      <trkpt lat="47.648590040" lon="12.053654697">
        <ele>1548.8</ele>
        <time>2026-08-13T09:52:26Z</time>
      </trkpt>
      <trkpt lat="47.648630524" lon="12.053369125">
        <ele>1542.6</ele>
        <time>2026-08-13T09:52:56Z</time>
      </trkpt>
      <trkpt lat="47.648589956" lon="12.053094870">
        <ele>1536.3</ele>
        <time>2026-08-13T09:53:23Z</time>
      </trkpt>
      <trkpt lat="47.648583669" lon="12.052963777">
        <ele>1533.4</ele>
        <time>2026-08-13T09:53:36Z</time>
      </trkpt>
      <trkpt lat="47.648596829" lon="12.052849364">
        <ele>1530.1</ele>
        <time>2026-08-13T09:53:48Z</time>
      </trkpt>
      <trkpt lat="47.648548968" lon="12.052735202">
        <ele>1527.2</ele>
        <time>2026-08-13T09:54:03Z</time>
      </trkpt>
      <trkpt lat="47.648568749" lon="12.052566810">
        <ele>1522.4</ele>
        <time>2026-08-13T09:54:29Z</time>
      </trkpt>
      <trkpt lat="47.648503371" lon="12.052503694">
        <ele>1520.0</ele>
        <time>2026-08-13T09:54:43Z</time>
      </trkpt>
      <trkpt lat="47.648483170" lon="12.052421384">
        <ele>1518.1</ele>
        <time>2026-08-13T09:54:56Z</time>
      </trkpt>
      <trkpt lat="47.648630524" lon="12.052266402">
        <ele>1513.7</ele>
        <time>2026-08-13T09:55:21Z</time>
      </trkpt>
      <trkpt lat="47.648785589" lon="12.052212507">
        <ele>1509.9</ele>
        <time>2026-08-13T09:55:46Z</time>
      </trkpt>
      <trkpt lat="47.648847783" lon="12.052161628">
        <ele>1508.9</ele>
        <time>2026-08-13T09:55:54Z</time>
      </trkpt>
      <trkpt lat="47.648930680" lon="12.052153079">
        <ele>1507.5</ele>
        <time>2026-08-13T09:56:08Z</time>
      </trkpt>
      <trkpt lat="47.649068227" lon="12.052184343">
        <ele>1502.7</ele>
        <time>2026-08-13T09:56:36Z</time>
      </trkpt>
      <trkpt lat="47.649086248" lon="12.052102871">
        <ele>1499.8</ele>
        <time>2026-08-13T09:56:50Z</time>
      </trkpt>
      <trkpt lat="47.649205355" lon="12.052209908">
        <ele>1495.0</ele>
        <time>2026-08-13T09:57:19Z</time>
      </trkpt>
      <trkpt lat="47.649241732" lon="12.052164981">
        <ele>1492.6</ele>
        <time>2026-08-13T09:57:34Z</time>
      </trkpt>
      <trkpt lat="47.649444742" lon="12.052105805">
        <ele>1486.8</ele>
        <time>2026-08-13T09:58:01Z</time>
      </trkpt>
      <trkpt lat="47.649507439" lon="12.051950488">
        <ele>1481.5</ele>
        <time>2026-08-13T09:58:30Z</time>
      </trkpt>
      <trkpt lat="47.649617242" lon="12.051817048">
        <ele>1478.2</ele>
        <time>2026-08-13T09:58:55Z</time>
      </trkpt>
      <trkpt lat="47.649658062" lon="12.051728116">
        <ele>1476.7</ele>
        <time>2026-08-13T09:59:07Z</time>
      </trkpt>
      <trkpt lat="47.649654122" lon="12.051605238">
        <ele>1474.8</ele>
        <time>2026-08-13T09:59:21Z</time>
      </trkpt>
      <trkpt lat="47.649689158" lon="12.051456878">
        <ele>1471.9</ele>
        <time>2026-08-13T09:59:36Z</time>
      </trkpt>
      <trkpt lat="47.649738779" lon="12.051399378">
        <ele>1471.4</ele>
        <time>2026-08-13T09:59:52Z</time>
      </trkpt>
      <trkpt lat="47.649787394" lon="12.051424356">
        <ele>1469.0</ele>
        <time>2026-08-13T10:00:20Z</time>
      </trkpt>
      <trkpt lat="47.649847493" lon="12.051660391">
        <ele>1463.7</ele>
        <time>2026-08-13T10:01:00Z</time>
      </trkpt>
      <trkpt lat="47.649866268" lon="12.051665755">
        <ele>1462.3</ele>
        <time>2026-08-13T10:01:14Z</time>
      </trkpt>
      <trkpt lat="47.649874901" lon="12.051800704">
        <ele>1458.0</ele>
        <time>2026-08-13T10:01:39Z</time>
      </trkpt>
      <trkpt lat="47.649945812" lon="12.051945040">
        <ele>1451.2</ele>
        <time>2026-08-13T10:02:23Z</time>
      </trkpt>
      <trkpt lat="47.649994427" lon="12.051860550">
        <ele>1449.3</ele>
        <time>2026-08-13T10:02:36Z</time>
      </trkpt>
      <trkpt lat="47.650007503" lon="12.051913692">
        <ele>1447.4</ele>
        <time>2026-08-13T10:02:48Z</time>
      </trkpt>
      <trkpt lat="47.650034660" lon="12.051856779">
        <ele>1445.5</ele>
        <time>2026-08-13T10:03:01Z</time>
      </trkpt>
      <trkpt lat="47.650095094" lon="12.051829789">
        <ele>1443.1</ele>
        <time>2026-08-13T10:03:16Z</time>
      </trkpt>
      <trkpt lat="47.650111690" lon="12.051793579">
        <ele>1441.6</ele>
        <time>2026-08-13T10:03:29Z</time>
      </trkpt>
      <trkpt lat="47.650155611" lon="12.051798441">
        <ele>1439.7</ele>
        <time>2026-08-13T10:03:43Z</time>
      </trkpt>
      <trkpt lat="47.650158042" lon="12.051914865">
        <ele>1437.3</ele>
        <time>2026-08-13T10:03:59Z</time>
      </trkpt>
      <trkpt lat="47.650176063" lon="12.051996170">
        <ele>1435.9</ele>
        <time>2026-08-13T10:04:13Z</time>
      </trkpt>
      <trkpt lat="47.650271701" lon="12.052135980">
        <ele>1430.6</ele>
        <time>2026-08-13T10:04:48Z</time>
      </trkpt>
      <trkpt lat="47.650341271" lon="12.052324070">
        <ele>1425.3</ele>
        <time>2026-08-13T10:05:36Z</time>
      </trkpt>
      <trkpt lat="47.650369853" lon="12.052297080">
        <ele>1423.4</ele>
        <time>2026-08-13T10:07:00Z</time>
      </trkpt>
      <trkpt lat="47.650382509" lon="12.052380061">
        <ele>1423.4</ele>
        <time>2026-08-13T10:08:39Z</time>
      </trkpt>
      <trkpt lat="47.650458785" lon="12.052508220">
        <ele>1419.0</ele>
        <time>2026-08-13T10:09:24Z</time>
      </trkpt>
      <trkpt lat="47.650455097" lon="12.052642330">
        <ele>1417.6</ele>
        <time>2026-08-13T10:09:38Z</time>
      </trkpt>
      <trkpt lat="47.650476219" lon="12.052765628">
        <ele>1416.2</ele>
        <time>2026-08-13T10:09:52Z</time>
      </trkpt>
      <trkpt lat="47.650450906" lon="12.052897057">
        <ele>1415.7</ele>
        <time>2026-08-13T10:10:06Z</time>
      </trkpt>
      <trkpt lat="47.650448643" lon="12.053085566">
        <ele>1410.9</ele>
        <time>2026-08-13T10:10:55Z</time>
      </trkpt>
      <trkpt lat="47.650481500" lon="12.053069053">
        <ele>1410.4</ele>
        <time>2026-08-13T10:11:02Z</time>
      </trkpt>
      <trkpt lat="47.650577892" lon="12.053147340">
        <ele>1407.5</ele>
        <time>2026-08-13T10:11:18Z</time>
      </trkpt>
      <trkpt lat="47.650695322" lon="12.053413801">
        <ele>1403.2</ele>
        <time>2026-08-13T10:11:45Z</time>
      </trkpt>
      <trkpt lat="47.650854494" lon="12.054016879">
        <ele>1393.6</ele>
        <time>2026-08-13T10:12:57Z</time>
      </trkpt>
      <trkpt lat="47.650885424" lon="12.054252410">
        <ele>1390.7</ele>
        <time>2026-08-13T10:13:16Z</time>
      </trkpt>
      <trkpt lat="47.650922975" lon="12.054354921">
        <ele>1389.7</ele>
        <time>2026-08-13T10:13:26Z</time>
      </trkpt>
      <trkpt lat="47.650994807" lon="12.054671254">
        <ele>1384.9</ele>
        <time>2026-08-13T10:13:57Z</time>
      </trkpt>
      <trkpt lat="47.651011907" lon="12.054815590">
        <ele>1382.5</ele>
        <time>2026-08-13T10:14:13Z</time>
      </trkpt>
      <trkpt lat="47.651068401" lon="12.054861691">
        <ele>1377.7</ele>
        <time>2026-08-13T10:14:38Z</time>
      </trkpt>
      <trkpt lat="47.651121039" lon="12.054875186">
        <ele>1374.8</ele>
        <time>2026-08-13T10:14:52Z</time>
      </trkpt>
      <trkpt lat="47.651165798" lon="12.055034023">
        <ele>1371.9</ele>
        <time>2026-08-13T10:15:22Z</time>
      </trkpt>
      <trkpt lat="47.651270069" lon="12.055126643">
        <ele>1368.6</ele>
        <time>2026-08-13T10:15:47Z</time>
      </trkpt>
      <trkpt lat="47.651310302" lon="12.055261340">
        <ele>1368.1</ele>
        <time>2026-08-13T10:16:01Z</time>
      </trkpt>
      <trkpt lat="47.651464194" lon="12.055468038">
        <ele>1362.8</ele>
        <time>2026-08-13T10:16:46Z</time>
      </trkpt>
      <trkpt lat="47.651540386" lon="12.055550935">
        <ele>1360.9</ele>
        <time>2026-08-13T10:17:01Z</time>
      </trkpt>
      <trkpt lat="47.651623618" lon="12.055604495">
        <ele>1359.0</ele>
        <time>2026-08-13T10:17:16Z</time>
      </trkpt>
      <trkpt lat="47.651757812" lon="12.055766098">
        <ele>1358.0</ele>
        <time>2026-08-13T10:17:49Z</time>
      </trkpt>
      <trkpt lat="47.651971718" lon="12.055863664">
        <ele>1353.7</ele>
        <time>2026-08-13T10:18:25Z</time>
      </trkpt>
      <trkpt lat="47.652120497" lon="12.055915799">
        <ele>1349.3</ele>
        <time>2026-08-13T10:18:48Z</time>
      </trkpt>
      <trkpt lat="47.652188307" lon="12.055954356">
        <ele>1346.9</ele>
        <time>2026-08-13T10:18:58Z</time>
      </trkpt>
      <trkpt lat="47.652214123" lon="12.055991571">
        <ele>1345.5</ele>
        <time>2026-08-13T10:19:03Z</time>
      </trkpt>
      <trkpt lat="47.652407996" lon="12.056089807">
        <ele>1341.2</ele>
        <time>2026-08-13T10:19:30Z</time>
      </trkpt>
      <trkpt lat="47.652514530" lon="12.056108583">
        <ele>1338.8</ele>
        <time>2026-08-13T10:19:44Z</time>
      </trkpt>
      <trkpt lat="47.652605223" lon="12.056087209">
        <ele>1335.9</ele>
        <time>2026-08-13T10:19:56Z</time>
      </trkpt>
      <trkpt lat="47.652661214" lon="12.056037001">
        <ele>1333.0</ele>
        <time>2026-08-13T10:20:09Z</time>
      </trkpt>
      <trkpt lat="47.652595835" lon="12.055941280">
        <ele>1330.1</ele>
        <time>2026-08-13T10:20:18Z</time>
      </trkpt>
      <trkpt lat="47.652706476" lon="12.055897024">
        <ele>1324.8</ele>
        <time>2026-08-13T10:20:34Z</time>
      </trkpt>
      <trkpt lat="47.652718714" lon="12.055843044">
        <ele>1322.0</ele>
        <time>2026-08-13T10:20:43Z</time>
      </trkpt>
      <trkpt lat="47.652753750" lon="12.055845307">
        <ele>1318.6</ele>
        <time>2026-08-13T10:20:59Z</time>
      </trkpt>
      <trkpt lat="47.652984252" lon="12.055738689">
        <ele>1312.3</ele>
        <time>2026-08-13T10:21:51Z</time>
      </trkpt>
      <trkpt lat="47.653123643" lon="12.055633580">
        <ele>1307.5</ele>
        <time>2026-08-13T10:22:09Z</time>
      </trkpt>
      <trkpt lat="47.653211905" lon="12.055538949">
        <ele>1302.7</ele>
        <time>2026-08-13T10:22:24Z</time>
      </trkpt>
      <trkpt lat="47.653290192" lon="12.055491591">
        <ele>1299.4</ele>
        <time>2026-08-13T10:22:37Z</time>
      </trkpt>
      <trkpt lat="47.653400078" lon="12.055463009">
        <ele>1296.0</ele>
        <time>2026-08-13T10:22:50Z</time>
      </trkpt>
      <trkpt lat="47.653528238" lon="12.055464685">
        <ele>1292.6</ele>
        <time>2026-08-13T10:23:04Z</time>
      </trkpt>
      <trkpt lat="47.653634856" lon="12.055424536">
        <ele>1289.8</ele>
        <time>2026-08-13T10:23:18Z</time>
      </trkpt>
      <trkpt lat="47.653636113" lon="12.055363599">
        <ele>1287.3</ele>
        <time>2026-08-13T10:23:30Z</time>
      </trkpt>
      <trkpt lat="47.653740132" lon="12.055308195">
        <ele>1283.0</ele>
        <time>2026-08-13T10:23:48Z</time>
      </trkpt>
      <trkpt lat="47.653830238" lon="12.055317331">
        <ele>1279.7</ele>
        <time>2026-08-13T10:24:02Z</time>
      </trkpt>
      <trkpt lat="47.653879104" lon="12.055201996">
        <ele>1276.8</ele>
        <time>2026-08-13T10:24:16Z</time>
      </trkpt>
      <trkpt lat="47.653994523" lon="12.055080207">
        <ele>1272.0</ele>
        <time>2026-08-13T10:24:34Z</time>
      </trkpt>
      <trkpt lat="47.654108601" lon="12.055065706">
        <ele>1269.1</ele>
        <time>2026-08-13T10:24:47Z</time>
      </trkpt>
      <trkpt lat="47.654259894" lon="12.055010721">
        <ele>1266.2</ele>
        <time>2026-08-13T10:25:04Z</time>
      </trkpt>
      <trkpt lat="47.654297948" lon="12.055013571">
        <ele>1265.2</ele>
        <time>2026-08-13T10:25:08Z</time>
      </trkpt>
      <trkpt lat="47.654490899" lon="12.055219850">
        <ele>1259.0</ele>
        <time>2026-08-13T10:25:39Z</time>
      </trkpt>
      <trkpt lat="47.654618975" lon="12.055304507">
        <ele>1255.6</ele>
        <time>2026-08-13T10:25:53Z</time>
      </trkpt>
      <trkpt lat="47.654822404" lon="12.055368712">
        <ele>1250.8</ele>
        <time>2026-08-13T10:26:18Z</time>
      </trkpt>
      <trkpt lat="47.655016277" lon="12.055273913">
        <ele>1247.0</ele>
        <time>2026-08-13T10:26:38Z</time>
      </trkpt>
      <trkpt lat="47.655193722" lon="12.055285564">
        <ele>1243.6</ele>
        <time>2026-08-13T10:26:53Z</time>
      </trkpt>
      <trkpt lat="47.655524807" lon="12.055450100">
        <ele>1239.3</ele>
        <time>2026-08-13T10:27:21Z</time>
      </trkpt>
      <trkpt lat="47.655700743" lon="12.055709688">
        <ele>1236.9</ele>
        <time>2026-08-13T10:27:40Z</time>
      </trkpt>
      <trkpt lat="47.655896377" lon="12.055732152">
        <ele>1235.4</ele>
        <time>2026-08-13T10:27:56Z</time>
      </trkpt>
      <trkpt lat="47.656069882" lon="12.055823682">
        <ele>1231.1</ele>
        <time>2026-08-13T10:28:14Z</time>
      </trkpt>
      <trkpt lat="47.656242885" lon="12.055801135">
        <ele>1227.7</ele>
        <time>2026-08-13T10:28:29Z</time>
      </trkpt>
      <trkpt lat="47.656350257" lon="12.055732822">
        <ele>1225.3</ele>
        <time>2026-08-13T10:28:39Z</time>
      </trkpt>
      <trkpt lat="47.656358136" lon="12.055705497">
        <ele>1224.9</ele>
        <time>2026-08-13T10:28:41Z</time>
      </trkpt>
      <trkpt lat="47.656303821" lon="12.055390421">
        <ele>1219.6</ele>
        <time>2026-08-13T10:29:02Z</time>
      </trkpt>
      <trkpt lat="47.656218745" lon="12.055156902">
        <ele>1217.2</ele>
        <time>2026-08-13T10:29:17Z</time>
      </trkpt>
      <trkpt lat="47.656148505" lon="12.054907205">
        <ele>1213.8</ele>
        <time>2026-08-13T10:29:33Z</time>
      </trkpt>
      <trkpt lat="47.656108523" lon="12.054662956">
        <ele>1210.9</ele>
        <time>2026-08-13T10:29:48Z</time>
      </trkpt>
      <trkpt lat="47.656126125" lon="12.054614341">
        <ele>1210.0</ele>
        <time>2026-08-13T10:29:52Z</time>
      </trkpt>
      <trkpt lat="47.656154875" lon="12.054612581">
        <ele>1209.5</ele>
        <time>2026-08-13T10:29:55Z</time>
      </trkpt>
      <trkpt lat="47.656222684" lon="12.054743506">
        <ele>1207.5</ele>
        <time>2026-08-13T10:30:06Z</time>
      </trkpt>
      <trkpt lat="47.656350341" lon="12.054753061">
        <ele>1205.6</ele>
        <time>2026-08-13T10:30:20Z</time>
      </trkpt>
      <trkpt lat="47.656559385" lon="12.054636469">
        <ele>1201.3</ele>
        <time>2026-08-13T10:30:39Z</time>
      </trkpt>
      <trkpt lat="47.656697100" lon="12.054527169">
        <ele>1198.4</ele>
        <time>2026-08-13T10:30:51Z</time>
      </trkpt>
      <trkpt lat="47.656847555" lon="12.054505209">
        <ele>1194.6</ele>
        <time>2026-08-13T10:31:03Z</time>
      </trkpt>
      <trkpt lat="47.657011254" lon="12.054575784">
        <ele>1191.7</ele>
        <time>2026-08-13T10:31:18Z</time>
      </trkpt>
      <trkpt lat="47.657086104" lon="12.054570168">
        <ele>1189.8</ele>
        <time>2026-08-13T10:31:26Z</time>
      </trkpt>
      <trkpt lat="47.657367568" lon="12.054086113">
        <ele>1181.1</ele>
        <time>2026-08-13T10:32:03Z</time>
      </trkpt>
      <trkpt lat="47.657417357" lon="12.053867849">
        <ele>1179.7</ele>
        <time>2026-08-13T10:32:14Z</time>
      </trkpt>
      <trkpt lat="47.657541241" lon="12.053591078">
        <ele>1176.3</ele>
        <time>2026-08-13T10:32:33Z</time>
      </trkpt>
      <trkpt lat="47.657708460" lon="12.053112136">
        <ele>1170.1</ele>
        <time>2026-08-13T10:33:05Z</time>
      </trkpt>
      <trkpt lat="47.657831507" lon="12.052956568">
        <ele>1167.2</ele>
        <time>2026-08-13T10:33:20Z</time>
      </trkpt>
      <trkpt lat="47.658172063" lon="12.052663537">
        <ele>1158.0</ele>
        <time>2026-08-13T10:33:59Z</time>
      </trkpt>
      <trkpt lat="47.658289410" lon="12.052589273">
        <ele>1156.6</ele>
        <time>2026-08-13T10:34:07Z</time>
      </trkpt>
      <trkpt lat="47.658429053" lon="12.052701088">
        <ele>1153.7</ele>
        <time>2026-08-13T10:34:23Z</time>
      </trkpt>
      <trkpt lat="47.658556541" lon="12.052767472">
        <ele>1150.8</ele>
        <time>2026-08-13T10:34:36Z</time>
      </trkpt>
      <trkpt lat="47.659218125" lon="12.052770825">
        <ele>1135.0</ele>
        <time>2026-08-13T10:35:34Z</time>
      </trkpt>
      <trkpt lat="47.659359863" lon="12.052843748">
        <ele>1132.1</ele>
        <time>2026-08-13T10:35:47Z</time>
      </trkpt>
      <trkpt lat="47.659646021" lon="12.053037286">
        <ele>1125.4</ele>
        <time>2026-08-13T10:36:15Z</time>
      </trkpt>
      <trkpt lat="47.659834363" lon="12.053100318">
        <ele>1122.0</ele>
        <time>2026-08-13T10:36:31Z</time>
      </trkpt>
      <trkpt lat="47.659942070" lon="12.053344147">
        <ele>1119.1</ele>
        <time>2026-08-13T10:36:47Z</time>
      </trkpt>
      <trkpt lat="47.659795806" lon="12.053548833">
        <ele>1116.7</ele>
        <time>2026-08-13T10:37:04Z</time>
      </trkpt>
      <trkpt lat="47.659376627" lon="12.053646482">
        <ele>1110.5</ele>
        <time>2026-08-13T10:37:39Z</time>
      </trkpt>
      <trkpt lat="47.659262801" lon="12.053816468">
        <ele>1108.1</ele>
        <time>2026-08-13T10:37:54Z</time>
      </trkpt>
      <trkpt lat="47.659307225" lon="12.053984189">
        <ele>1105.2</ele>
        <time>2026-08-13T10:38:06Z</time>
      </trkpt>
      <trkpt lat="47.659420464" lon="12.054043030">
        <ele>1102.8</ele>
        <time>2026-08-13T10:38:18Z</time>
      </trkpt>
      <trkpt lat="47.659504535" lon="12.053977232">
        <ele>1100.4</ele>
        <time>2026-08-13T10:38:39Z</time>
      </trkpt>
      <trkpt lat="47.659510737" lon="12.053946974">
        <ele>1102.8</ele>
        <time>2026-08-13T10:39:25Z</time>
      </trkpt>
    </trkseg>
  </trk>
</gpx>
